createdAt,value
2017-12-29T00:00:22.060Z,28.10
2017-12-29T00:02:50.726Z,31.83
2017-12-29T00:05:19.432Z,21.13
2017-12-29T00:07:48.118Z,9.43
2017-12-29T00:10:17.654Z,6.17
2017-12-29T00:12:46.300Z,5.60
2017-12-29T00:15:14.892Z,7.70
2017-12-29T00:17:43.512Z,5.47
2017-12-29T00:20:13.068Z,3.83
2017-12-29T00:22:41.695Z,4.67
2017-12-29T00:25:10.388Z,10.77
2017-12-29T00:27:40.208Z,9.37
2017-12-29T00:30:09.668Z,45.47
2017-12-29T00:32:38.353Z,36.83
2017-12-29T00:35:07.237Z,17.83
2017-12-29T00:37:36.339Z,18.67
2017-12-29T00:40:05.020Z,12.23
2017-12-29T00:42:33.866Z,9.63
2017-12-29T00:45:02.559Z,6.63
2017-12-29T00:47:31.280Z,6.67
2017-12-29T00:50:00.175Z,6.80
2017-12-29T00:52:28.762Z,3.13
2017-12-29T00:54:57.447Z,4.93
2017-12-29T00:57:26.273Z,4.83
2017-12-29T00:59:55.740Z,8.70
2017-12-29T01:02:24.426Z,7.30
2017-12-29T01:04:54.177Z,9.70
2017-12-29T01:07:23.487Z,7.77
2017-12-29T01:09:52.217Z,8.70
2017-12-29T01:12:21.013Z,15.07
2017-12-29T01:14:49.698Z,14.17
2017-12-29T01:17:18.384Z,18.63
2017-12-29T01:19:47.109Z,27.30
2017-12-29T01:22:16.567Z,20.37
2017-12-29T01:24:45.258Z,16.97
2017-12-29T01:27:14.135Z,12.07
2017-12-29T01:29:42.834Z,10.60
2017-12-29T01:32:11.518Z,8.43
2017-12-29T01:34:40.303Z,6.00
2017-12-29T01:37:08.891Z,8.10
2017-12-29T01:39:37.477Z,5.80
2017-12-29T01:42:06.262Z,6.93
2017-12-29T01:44:34.948Z,5.50
2017-12-29T01:47:03.535Z,5.77
2017-12-29T01:49:32.319Z,3.93
2017-12-29T01:52:01.005Z,7.47
2017-12-29T01:54:29.691Z,3.50
2017-12-29T01:56:58.683Z,3.93
2017-12-29T01:59:27.321Z,4.10
2017-12-29T02:01:56.768Z,3.93
2017-12-29T02:04:25.453Z,5.70
2017-12-29T02:06:54.041Z,4.20
2017-12-29T02:09:23.549Z,4.67
2017-12-29T02:11:52.433Z,4.20
2017-12-29T02:14:21.081Z,9.33
2017-12-29T02:16:49.747Z,2.90
2017-12-29T02:19:19.215Z,3.17
2017-12-29T02:21:47.888Z,7.00
2017-12-29T02:24:16.572Z,3.70
2017-12-29T02:26:45.266Z,2.20
2017-12-29T02:29:13.957Z,1.40
2017-12-29T02:31:42.576Z,8.27
2017-12-29T02:34:12.043Z,14.10
2017-12-29T02:36:40.629Z,7.13
2017-12-29T02:39:09.279Z,24.23
2017-12-29T02:41:38.307Z,31.60
2017-12-29T02:44:06.941Z,39.23
2017-12-29T02:46:36.636Z,29.70
2017-12-29T02:49:06.406Z,33.73
2017-12-29T02:51:35.097Z,34.97
2017-12-29T02:54:03.678Z,30.43
2017-12-29T02:56:32.408Z,46.70
2017-12-29T02:59:01.764Z,51.83
2017-12-29T03:01:30.344Z,49.07
2017-12-29T03:03:59.134Z,54.23
2017-12-29T03:06:27.876Z,62.63
2017-12-29T03:08:57.637Z,63.80
2017-12-29T03:11:27.343Z,61.23
2017-12-29T03:13:56.009Z,65.37
2017-12-29T03:16:24.715Z,63.97
2017-12-29T03:18:53.669Z,71.83
2017-12-29T03:21:22.393Z,66.40
2017-12-29T03:23:51.029Z,71.87
2017-12-29T03:26:20.378Z,64.37
2017-12-29T03:28:49.064Z,65.10
2017-12-29T03:31:17.709Z,67.13
2017-12-29T03:33:47.568Z,69.10
2017-12-29T03:36:16.193Z,73.23
2017-12-29T03:38:46.010Z,82.47
2017-12-29T03:41:15.532Z,74.27
2017-12-29T03:43:44.252Z,63.87
2017-12-29T03:46:12.890Z,61.97
2017-12-29T03:48:42.433Z,73.00
2017-12-29T03:51:11.033Z,60.87
2017-12-29T03:53:39.664Z,58.50
2017-12-29T03:56:09.215Z,61.30
2017-12-29T03:58:37.902Z,54.60
2017-12-29T04:01:06.548Z,52.00
2017-12-29T04:03:35.274Z,56.50
2017-12-29T04:06:04.016Z,49.87
2017-12-29T04:08:33.370Z,53.30
2017-12-29T04:11:02.252Z,51.80
2017-12-29T04:13:30.939Z,51.53
2017-12-29T04:15:59.604Z,52.70
2017-12-29T04:18:28.420Z,67.27
2017-12-29T04:20:56.956Z,70.40
2017-12-29T04:23:25.682Z,68.77
2017-12-29T04:25:54.884Z,69.47
2017-12-29T04:28:23.876Z,133.33
2017-12-29T04:30:52.660Z,118.83
2017-12-29T04:33:21.629Z,106.83
2017-12-29T04:35:50.339Z,89.80
2017-12-29T04:38:18.991Z,179.00
2017-12-29T04:40:47.711Z,103.67
2017-12-29T04:43:16.376Z,107.27
2017-12-29T04:45:45.082Z,59.53
2017-12-29T04:48:13.767Z,59.00
2017-12-29T04:50:42.355Z,65.23
2017-12-29T04:53:11.041Z,68.87
2017-12-29T04:55:39.924Z,69.73
2017-12-29T04:58:08.621Z,71.83
2017-12-29T05:00:37.248Z,70.80
2017-12-29T05:03:06.770Z,56.63
2017-12-29T05:05:35.491Z,58.60
2017-12-29T05:08:04.176Z,54.10
2017-12-29T05:10:32.860Z,44.87
2017-12-29T05:13:01.548Z,44.43
2017-12-29T05:15:30.135Z,43.43
2017-12-29T05:17:58.821Z,39.00
2017-12-29T05:20:27.407Z,34.07
2017-12-29T05:22:56.094Z,35.23
2017-12-29T05:25:24.878Z,33.07
2017-12-29T05:27:53.442Z,69.47
2017-12-29T05:30:22.151Z,94.47
2017-12-29T05:32:51.283Z,70.83
2017-12-29T05:35:20.750Z,48.67
2017-12-29T05:37:49.391Z,57.53
2017-12-29T05:40:18.934Z,42.77
2017-12-29T05:42:47.622Z,40.67
2017-12-29T05:45:16.248Z,42.03
2017-12-29T05:47:46.637Z,38.73
2017-12-29T05:50:15.323Z,47.97
2017-12-29T05:52:44.009Z,38.93
2017-12-29T05:55:13.170Z,57.30
2017-12-29T05:57:41.885Z,58.43
2017-12-29T06:00:10.680Z,53.03
2017-12-29T06:02:39.373Z,56.43
2017-12-29T06:05:08.037Z,74.17
2017-12-29T06:07:36.738Z,59.17
2017-12-29T06:10:05.523Z,47.63
2017-12-29T06:12:34.143Z,54.40
2017-12-29T06:15:03.608Z,55.57
2017-12-29T06:17:32.500Z,50.47
2017-12-29T06:20:01.188Z,55.93
2017-12-29T06:22:29.816Z,52.40
2017-12-29T06:24:59.480Z,72.47
2017-12-29T06:27:28.100Z,75.17
2017-12-29T06:29:57.565Z,68.97
2017-12-29T06:32:26.360Z,72.10
2017-12-29T06:34:55.857Z,72.13
2017-12-29T06:37:24.498Z,67.43
2017-12-29T06:39:54.360Z,87.83
2017-12-29T06:42:22.936Z,169.00
2017-12-29T06:44:51.632Z,123.43
2017-12-29T06:47:20.471Z,157.97
2017-12-29T06:49:49.926Z,171.23
2017-12-29T06:52:18.612Z,147.83
2017-12-29T06:54:47.397Z,111.30
2017-12-29T06:57:16.905Z,121.20
2017-12-29T06:59:45.590Z,99.53
2017-12-29T07:02:14.427Z,112.00
2017-12-29T07:04:43.763Z,83.93
2017-12-29T07:07:12.461Z,84.07
2017-12-29T07:09:41.354Z,243.57
2017-12-29T07:12:09.998Z,119.30
2017-12-29T07:14:38.726Z,64.53
2017-12-29T07:17:07.509Z,80.20
2017-12-29T07:19:36.097Z,170.93
2017-12-29T07:22:04.785Z,618.27
2017-12-29T07:24:33.875Z,211.77
2017-12-29T07:27:02.507Z,188.47
2017-12-29T07:29:31.970Z,128.43
2017-12-29T07:32:00.647Z,113.83
2017-12-29T07:34:29.186Z,130.93
2017-12-29T07:36:57.918Z,98.53
2017-12-29T07:39:27.525Z,104.17
2017-12-29T07:41:56.163Z,101.37
2017-12-29T07:44:25.500Z,63.63
2017-12-29T07:46:54.295Z,73.67
2017-12-29T07:49:22.993Z,51.83
2017-12-29T07:51:51.679Z,44.33
2017-12-29T07:54:20.465Z,52.97
2017-12-29T07:56:49.151Z,38.87
2017-12-29T07:59:17.788Z,30.30
2017-12-29T08:01:47.144Z,137.93
2017-12-29T08:04:15.774Z,45.13
2017-12-29T08:06:45.222Z,45.03
2017-12-29T08:09:14.005Z,61.97
2017-12-29T08:11:42.701Z,78.87
2017-12-29T08:14:11.387Z,74.27
2017-12-29T08:16:40.380Z,67.87
2017-12-29T08:19:09.005Z,42.63
2017-12-29T08:21:37.751Z,60.07
2017-12-29T08:24:06.689Z,45.83
2017-12-29T08:26:36.144Z,46.47
2017-12-29T08:31:33.261Z,48.30
2017-12-29T08:34:01.994Z,40.97
2017-12-29T08:36:30.622Z,31.20
2017-12-29T08:39:00.439Z,31.23
2017-12-29T08:41:29.894Z,31.30
2017-12-29T08:43:58.579Z,50.57
2017-12-29T08:46:27.418Z,45.37
2017-12-29T08:48:56.872Z,60.27
2017-12-29T08:51:25.504Z,70.37
2017-12-29T08:53:55.121Z,98.77
2017-12-29T08:56:23.715Z,92.57
2017-12-29T08:58:52.440Z,144.77
2017-12-29T09:01:21.123Z,124.90
2017-12-29T09:03:49.811Z,107.03
2017-12-29T09:06:18.393Z,96.47
2017-12-29T09:08:47.325Z,111.43
2017-12-29T09:11:16.790Z,103.83
2017-12-29T09:13:45.415Z,148.67
2017-12-29T09:16:14.880Z,122.60
2017-12-29T09:18:43.559Z,108.67
2017-12-29T09:21:12.245Z,145.63
2017-12-29T09:23:40.932Z,178.00
2017-12-29T09:26:09.526Z,188.13
2017-12-29T09:28:38.302Z,192.97
2017-12-29T09:31:07.296Z,160.20
2017-12-29T09:33:35.933Z,201.53
2017-12-29T09:36:05.349Z,327.33
2017-12-29T09:38:34.076Z,144.80
2017-12-29T09:41:02.709Z,164.90
2017-12-29T09:43:32.162Z,127.50
2017-12-29T09:46:01.155Z,123.60
2017-12-29T09:48:29.731Z,99.43
2017-12-29T09:50:58.316Z,147.37
2017-12-29T09:53:27.276Z,154.53
2017-12-29T09:55:55.944Z,174.43
2017-12-29T09:58:25.413Z,124.73
2017-12-29T10:00:54.290Z,84.17
2017-12-29T10:03:22.832Z,98.93
2017-12-29T10:05:52.174Z,89.97
2017-12-29T10:08:20.772Z,82.73
2017-12-29T10:10:49.449Z,67.27
2017-12-29T10:13:18.025Z,128.07
2017-12-29T10:15:46.809Z,141.20
2017-12-29T10:18:15.507Z,86.17
2017-12-29T10:20:44.104Z,95.20
2017-12-29T10:23:13.043Z,105.23
2017-12-29T10:25:42.486Z,144.57
2017-12-29T10:28:11.172Z,198.23
2017-12-29T10:30:39.957Z,134.67
2017-12-29T10:33:08.642Z,351.97
2017-12-29T10:35:37.224Z,272.97
2017-12-29T10:38:05.926Z,331.47
2017-12-29T10:40:34.799Z,196.73
2017-12-29T10:43:03.435Z,133.37
2017-12-29T10:45:33.201Z,87.23
2017-12-29T10:48:01.888Z,110.90
2017-12-29T10:50:30.511Z,88.90
2017-12-29T10:53:00.233Z,83.00
2017-12-29T10:55:29.677Z,105.73
2017-12-29T10:57:58.368Z,43.83
2017-12-29T11:00:27.212Z,46.37
2017-12-29T11:02:56.660Z,52.73
2017-12-29T11:05:25.322Z,37.63
2017-12-29T11:07:54.087Z,106.47
2017-12-29T11:10:23.538Z,51.87
2017-12-29T11:12:52.177Z,65.43
2017-12-29T11:15:21.624Z,77.57
2017-12-29T11:17:51.131Z,86.50
2017-12-29T11:20:19.708Z,61.00
2017-12-29T11:22:48.448Z,147.90
2017-12-29T11:25:17.866Z,152.70
2017-12-29T11:27:46.587Z,65.50
2017-12-29T11:30:15.271Z,55.03
2017-12-29T11:32:43.959Z,74.10
2017-12-29T11:35:12.648Z,71.33
2017-12-29T11:37:41.481Z,44.93
2017-12-29T11:40:10.838Z,70.60
2017-12-29T11:42:39.467Z,68.73
2017-12-29T11:45:09.235Z,63.53
2017-12-29T11:47:37.917Z,94.17
2017-12-29T11:50:06.546Z,59.73
2017-12-29T11:52:36.164Z,46.53
2017-12-29T11:55:05.626Z,32.87
2017-12-29T11:57:34.297Z,748.33
2017-12-29T12:00:03.187Z,40.20
2017-12-29T12:02:31.875Z,35.83
2017-12-29T12:05:00.561Z,37.73
2017-12-29T12:07:29.343Z,38.43
2017-12-29T12:09:58.044Z,30.60
2017-12-29T12:12:26.680Z,30.00
2017-12-29T12:14:55.610Z,86.43
2017-12-29T12:17:24.245Z,490.53
2017-12-29T12:19:53.711Z,532.00
2017-12-29T12:22:22.798Z,84.53
2017-12-29T12:24:51.376Z,637.47
2017-12-29T12:27:20.070Z,815.93
2017-12-29T12:29:48.855Z,651.77
2017-12-29T12:32:17.431Z,31.20
2017-12-29T12:34:46.127Z,29.43
2017-12-29T12:37:14.816Z,430.93
2017-12-29T12:39:43.453Z,596.07
2017-12-29T12:42:12.899Z,36.20
2017-12-29T12:44:41.683Z,227.73
2017-12-29T12:47:10.271Z,669.23
2017-12-29T12:49:38.956Z,300.73
2017-12-29T12:52:07.744Z,389.13
2017-12-29T12:54:36.389Z,97.60
2017-12-29T12:57:05.013Z,532.13
2017-12-29T12:59:33.800Z,32.13
2017-12-29T13:02:02.592Z,124.70
2017-12-29T13:04:31.168Z,74.57
2017-12-29T13:07:00.065Z,81.00
2017-12-29T13:09:28.750Z,42.17
2017-12-29T13:11:57.391Z,45.23
2017-12-29T13:14:26.384Z,17.10
2017-12-29T13:16:55.114Z,20.00
2017-12-29T13:19:23.800Z,14.93
2017-12-29T13:21:52.584Z,15.67
2017-12-29T13:24:21.233Z,15.53
2017-12-29T13:26:49.956Z,15.90
2017-12-29T13:29:18.651Z,19.60
2017-12-29T13:31:47.327Z,21.27
2017-12-29T13:34:15.913Z,26.77
2017-12-29T13:36:44.516Z,19.00
2017-12-29T13:39:13.187Z,16.57
2017-12-29T13:41:41.873Z,16.57
2017-12-29T13:44:10.658Z,17.23
2017-12-29T13:46:39.236Z,18.47
2017-12-29T13:49:07.908Z,23.00
2017-12-29T13:51:36.655Z,30.97
2017-12-29T13:54:06.017Z,40.90
2017-12-29T13:56:34.922Z,40.33
2017-12-29T13:59:04.359Z,47.07
2017-12-29T14:01:33.900Z,51.60
2017-12-29T14:04:02.460Z,47.13
2017-12-29T14:06:31.187Z,49.37
2017-12-29T14:08:59.827Z,47.83
2017-12-29T14:11:29.292Z,49.50
2017-12-29T14:13:58.438Z,41.43
2017-12-29T14:16:27.160Z,40.13
2017-12-29T14:18:55.736Z,42.07
2017-12-29T14:21:24.694Z,46.17
2017-12-29T14:23:53.364Z,38.03
2017-12-29T14:26:22.824Z,41.23
2017-12-29T14:28:51.548Z,41.40
2017-12-29T14:31:20.910Z,42.80
2017-12-29T14:33:50.418Z,51.03
2017-12-29T14:36:20.077Z,51.20
2017-12-29T14:38:49.523Z,56.57
2017-12-29T14:41:18.162Z,57.33
2017-12-29T14:43:47.717Z,56.70
2017-12-29T14:46:16.350Z,56.37
2017-12-29T14:48:45.766Z,50.53
2017-12-29T14:51:14.856Z,49.50
2017-12-29T14:53:44.195Z,53.77
2017-12-29T14:56:12.841Z,49.73
2017-12-29T14:58:42.539Z,51.67
2017-12-29T15:01:11.996Z,56.77
2017-12-29T15:03:40.649Z,56.60
2017-12-29T15:06:09.517Z,51.43
2017-12-29T15:08:38.976Z,52.37
2017-12-29T15:11:07.561Z,66.90
2017-12-29T15:13:36.555Z,63.40
2017-12-29T15:16:05.241Z,81.20
2017-12-29T15:18:33.881Z,209.10
2017-12-29T15:21:03.474Z,220.87
2017-12-29T15:23:32.933Z,283.57
2017-12-29T15:26:01.585Z,201.93
2017-12-29T15:28:30.580Z,215.23
2017-12-29T15:30:59.297Z,345.77
2017-12-29T15:33:27.964Z,465.73
2017-12-29T15:35:56.976Z,355.80
2017-12-29T15:38:25.662Z,282.10
2017-12-29T15:40:57.014Z,164.80
2017-12-29T15:43:25.900Z,125.57
2017-12-29T15:45:54.549Z,218.20
2017-12-29T15:48:23.279Z,115.70
2017-12-29T15:50:52.313Z,72.60
2017-12-29T15:53:21.770Z,98.27
2017-12-29T15:55:50.456Z,103.83
2017-12-29T15:58:19.145Z,75.27
2017-12-29T16:00:48.757Z,60.63
2017-12-29T16:03:17.435Z,519.43
2017-12-29T16:05:46.331Z,454.53
2017-12-29T16:08:15.016Z,387.13
2017-12-29T16:10:43.596Z,386.10
2017-12-29T16:13:12.450Z,421.20
2017-12-29T16:15:41.172Z,379.77
2017-12-29T16:18:09.857Z,466.47
2017-12-29T16:20:38.652Z,218.63
2017-12-29T16:23:07.338Z,231.97
2017-12-29T16:25:36.124Z,326.20
2017-12-29T16:28:05.056Z,269.20
2017-12-29T16:30:34.516Z,149.53
2017-12-29T16:33:03.201Z,163.20
2017-12-29T16:35:32.036Z,209.87
2017-12-29T16:38:01.400Z,236.00
2017-12-29T16:40:30.181Z,298.17
2017-12-29T16:43:33.069Z,202.53
2017-12-29T16:46:01.760Z,212.93
2017-12-29T16:48:30.644Z,116.47
2017-12-29T16:50:59.236Z,129.40
2017-12-29T16:53:27.858Z,218.90
2017-12-29T16:55:57.577Z,190.10
2017-12-29T16:58:26.309Z,145.60
2017-12-29T17:00:55.035Z,163.07
2017-12-29T17:03:24.755Z,162.00
2017-12-29T17:05:54.117Z,392.80
2017-12-29T17:08:22.815Z,259.93
2017-12-29T17:10:51.888Z,303.57
2017-12-29T17:13:20.527Z,125.00
2017-12-29T17:15:49.844Z,295.73
2017-12-29T17:18:18.737Z,264.93
2017-12-29T17:20:47.455Z,159.37
2017-12-29T17:23:16.139Z,180.50
2017-12-29T17:25:45.133Z,156.07
2017-12-29T17:28:13.784Z,188.43
2017-12-29T17:30:42.504Z,133.93
2017-12-29T17:33:11.388Z,86.50
2017-12-29T17:35:40.083Z,81.10
2017-12-29T17:38:08.726Z,91.43
2017-12-29T17:40:37.478Z,76.17
2017-12-29T17:43:06.916Z,130.27
2017-12-29T17:45:35.540Z,183.77
2017-12-29T17:48:16.826Z,111.27
2017-12-29T17:50:50.846Z,78.53
2017-12-29T17:53:19.617Z,64.97
2017-12-29T17:55:48.309Z,99.53
2017-12-29T17:58:16.943Z,163.20
2017-12-29T18:00:46.639Z,116.30
2017-12-29T18:03:16.100Z,135.07
2017-12-29T18:05:44.750Z,64.43
2017-12-29T18:08:13.581Z,142.87
2017-12-29T18:10:42.266Z,266.57
2017-12-29T18:13:10.900Z,182.03
2017-12-29T18:15:40.352Z,154.83
2017-12-29T18:18:09.039Z,77.67
2017-12-29T18:20:37.685Z,135.33
2017-12-29T18:23:06.677Z,225.47
2017-12-29T18:25:35.403Z,138.83
2017-12-29T18:28:04.659Z,127.67
2017-12-29T18:30:34.518Z,73.20
2017-12-29T18:33:03.204Z,94.03
2017-12-29T18:35:31.890Z,142.67
2017-12-29T18:38:00.631Z,84.57
2017-12-29T18:40:29.361Z,95.80
2017-12-29T18:42:58.046Z,67.73
2017-12-29T18:45:26.830Z,79.37
2017-12-29T18:47:55.477Z,89.13
2017-12-29T18:50:24.202Z,85.33
2017-12-29T18:52:52.888Z,94.33
2017-12-29T18:55:21.574Z,63.13
2017-12-29T18:57:50.223Z,38.83
2017-12-29T19:00:18.945Z,40.57
2017-12-29T19:02:47.610Z,53.30
2017-12-29T19:05:16.317Z,85.33
2017-12-29T19:07:45.310Z,122.60
2017-12-29T19:10:13.939Z,117.27
2017-12-29T19:12:42.644Z,122.30
2017-12-29T19:15:11.538Z,52.97
2017-12-29T19:17:40.224Z,48.87
2017-12-29T19:20:08.910Z,55.37
2017-12-29T19:22:37.594Z,68.20
2017-12-29T19:25:06.165Z,68.10
2017-12-29T19:27:34.908Z,42.30
2017-12-29T19:30:04.475Z,35.43
2017-12-29T19:32:33.119Z,58.77
2017-12-29T19:35:01.847Z,78.63
2017-12-29T19:37:30.939Z,73.83
2017-12-29T19:39:59.530Z,73.53
2017-12-29T19:42:28.095Z,53.27
2017-12-29T19:44:56.896Z,50.20
2017-12-29T19:47:25.583Z,54.27
2017-12-29T19:49:54.220Z,37.10
2017-12-29T19:52:23.691Z,31.50
2017-12-29T19:54:52.408Z,48.87
2017-12-29T19:57:21.140Z,50.13
2017-12-29T19:59:50.232Z,37.33
2017-12-29T20:02:18.926Z,37.53
2017-12-29T20:04:47.612Z,31.80
2017-12-29T20:07:16.496Z,27.73
2017-12-29T20:09:45.139Z,27.83
2017-12-29T20:12:13.769Z,32.87
2017-12-29T20:14:42.456Z,44.93
2017-12-29T20:17:11.141Z,45.77
2017-12-29T20:19:39.786Z,42.73
2017-12-29T20:22:08.778Z,59.43
2017-12-29T20:24:37.372Z,61.60
2017-12-29T20:27:06.094Z,71.07
2017-12-29T20:29:35.036Z,67.67
2017-12-29T20:32:04.486Z,60.27
2017-12-29T20:34:33.119Z,50.40
2017-12-29T20:37:02.668Z,50.37
2017-12-29T20:39:31.256Z,53.60
2017-12-29T20:41:59.843Z,45.57
2017-12-29T20:44:28.730Z,53.17
2017-12-29T20:46:57.302Z,69.37
2017-12-29T20:49:25.996Z,44.40
2017-12-29T20:51:54.967Z,43.70
2017-12-29T20:54:23.676Z,48.03
2017-12-29T20:56:52.328Z,44.87
2017-12-29T20:59:21.143Z,57.00
2017-12-29T21:01:49.844Z,40.47
2017-12-29T21:04:18.484Z,32.30
2017-12-29T21:06:48.199Z,35.03
2017-12-29T21:09:16.822Z,26.73
2017-12-29T21:11:45.508Z,27.50
2017-12-29T21:14:15.116Z,25.33
2017-12-29T21:16:43.803Z,27.17
2017-12-29T21:19:12.435Z,36.03
2017-12-29T21:21:41.985Z,25.37
2017-12-29T21:24:10.671Z,30.23
2017-12-29T21:26:39.316Z,24.80
2017-12-29T21:29:08.043Z,22.87
2017-12-29T21:31:36.735Z,30.47
2017-12-29T21:34:05.370Z,31.83
2017-12-29T21:36:34.100Z,29.33
2017-12-29T21:39:02.655Z,50.67
2017-12-29T21:41:31.373Z,74.53
2017-12-29T21:44:00.058Z,54.97
2017-12-29T21:46:28.745Z,49.07
2017-12-29T21:48:57.430Z,31.03
2017-12-29T21:51:26.115Z,31.50
2017-12-29T21:53:54.803Z,34.17
2017-12-29T21:56:23.494Z,29.17
2017-12-29T21:58:52.222Z,27.30
2017-12-29T22:01:21.682Z,30.97
2017-12-29T22:03:50.251Z,31.00
2017-12-29T22:06:19.225Z,30.40
2017-12-29T22:08:47.762Z,38.57
2017-12-29T22:11:16.524Z,35.63
2017-12-29T22:13:45.229Z,33.83
2017-12-29T22:16:13.896Z,33.20
2017-12-29T22:18:42.514Z,33.20
2017-12-29T22:21:11.270Z,28.87
2017-12-29T22:23:39.954Z,35.40
2017-12-29T22:26:08.593Z,21.23
2017-12-29T22:28:38.511Z,45.77
2017-12-29T22:31:07.239Z,33.93
2017-12-29T22:33:35.926Z,26.53
2017-12-29T22:36:04.908Z,26.63
2017-12-29T22:38:33.505Z,22.27
2017-12-29T22:41:02.949Z,19.43
2017-12-29T22:43:32.514Z,25.83
2017-12-29T22:46:01.198Z,41.97
2017-12-29T22:48:29.883Z,37.33
2017-12-29T22:50:58.568Z,37.53
2017-12-29T22:53:27.133Z,39.10
2017-12-29T22:55:55.844Z,42.57
2017-12-29T22:58:24.726Z,37.37
2017-12-29T23:00:53.392Z,37.23
2017-12-29T23:03:22.096Z,39.73
2017-12-29T23:05:51.090Z,37.93
2017-12-29T23:08:19.720Z,40.87
2017-12-29T23:10:49.185Z,42.10
2017-12-29T23:13:17.859Z,39.63
2017-12-29T23:15:46.557Z,39.80
2017-12-29T23:18:15.243Z,35.23
2017-12-29T23:20:43.984Z,39.33
2017-12-29T23:23:12.714Z,42.57
2017-12-29T23:25:41.400Z,42.23
2017-12-29T23:28:10.085Z,37.67
2017-12-29T23:30:38.649Z,36.40
2017-12-29T23:33:07.247Z,38.23
2017-12-29T23:35:36.142Z,33.53
2017-12-29T23:38:04.829Z,29.47
2017-12-29T23:40:33.576Z,31.83
2017-12-29T23:43:02.299Z,35.53
2017-12-29T23:45:30.938Z,27.50
2017-12-29T23:48:00.274Z,34.70
2017-12-29T23:50:29.080Z,31.67
2017-12-29T23:52:57.712Z,25.10
2017-12-29T23:55:27.166Z,24.27
2017-12-29T23:57:56.158Z,29.87
